This is the latest recevied weather packets stored in our database for station/object WX6HNX-5. If no packets are shown the sender has not sent any weather packets the latest 10 day(s).
| Time | Temp. | Humidity | Pressure | Rain* | Wind** | Luminosity | Snow |
|---|---|---|---|---|---|---|---|
| 1777940089 | 19.44° C | 55% | 1012 hPa | 0 mm | - | - | - |
| 1777939790 | 19.44° C | 55% | 1012.1 hPa | 0 mm | - | - | - |
| 1777939490 | 18.89° C | 56% | 1012.1 hPa | 0 mm | - | - | - |
| 1777939190 | 18.89° C | 58% | 1012.2 hPa | 0 mm | - | - | - |
| 1777938891 | 19.44° C | 57% | 1012.2 hPa | 0 mm | - | - | - |
| 1777938590 | 18.89° C | 59% | 1012.1 hPa | 0 mm | - | - | - |
| 1777938292 | 18.33° C | 61% | 1012.1 hPa | 0 mm | - | - | - |
| 1777937990 | 18.33° C | 60% | 1012.2 hPa | 0 mm | - | - | - |
| 1777937690 | 18.89° C | 58% | 1012.3 hPa | 0 mm | - | - | - |
| 1777937389 | 18.89° C | 56% | 1012.4 hPa | 0 mm | - | - | - |
| 1777937090 | 19.44° C | 52% | 1012.4 hPa | 0 mm | - | - | - |
| 1777936489 | 20° C | 51% | 1012.4 hPa | 0 mm | - | - | - |
| 1777935927 | 20° C | 52% | 1012.3 hPa | 0 mm | - | - | - |
| 1777935628 | 20° C | 51% | 1012.3 hPa | 0 mm | - | - | - |
| 1777935327 | 20.56° C | 50% | 1012.4 hPa | 0 mm | - | - | - |
| 1777935027 | 20.56° C | 50% | 1012.4 hPa | 0 mm | - | - | - |
| 1777934726 | 20.56° C | 50% | 1012.4 hPa | 0 mm | - | - | - |
| 1777934359 | 20.56° C | 50% | 1012.4 hPa | 0 mm | - | - | - |
| 1777934058 | 20.56° C | 50% | 1012.5 hPa | 0 mm | - | - | - |
| 1777933758 | 20.56° C | 52% | 1012.4 hPa | 0 mm | - | - | - |
| 1777933458 | 20.56° C | 52% | 1012.6 hPa | 0 mm | - | - | - |
| 1777933158 | 20.56° C | 51% | 1012.7 hPa | 0 mm | - | - | - |
| 1777932858 | 20.56° C | 51% | 1012.6 hPa | 0 mm | - | - | - |
| 1777932558 | 20° C | 51% | 1012.7 hPa | 0 mm | - | - | - |
| 1777932258 | 20° C | 51% | 1012.7 hPa | 0 mm | - | - | - |
* Rain latest hour (hover to see other rain measurements)
** Current wind speed in m/s (hover to see current wind gust speed)